sensor_id;sensor_type;location;lat;lon;timestamp;pressure;altitude;pressure_sealevel;temperature;humidity
38400;BME280;24180;42.676;23.320;2022-08-20T00:00:43;94396.19;;;24.40;100.00
38400;BME280;24180;42.676;23.320;2022-08-20T00:03:26;94384.94;;;24.33;100.00
38400;BME280;24180;42.676;23.320;2022-08-20T00:05:59;94390.00;;;24.34;100.00
38400;BME280;24180;42.676;23.320;2022-08-20T00:08:25;94391.38;;;24.37;100.00
38400;BME280;24180;42.676;23.320;2022-08-20T00:10:51;94388.72;;;24.37;100.00
38400;BME280;24180;42.676;23.320;2022-08-20T00:13:31;94393.19;;;24.36;100.00
38400;BME280;24180;42.676;23.320;2022-08-20T00:15:57;94396.22;;;24.28;100.00
38400;BME280;24180;42.676;23.320;2022-08-20T00:18:24;94394.06;;;24.25;100.00
38400;BME280;24180;42.676;23.320;2022-08-20T00:20:52;94391.56;;;24.18;100.00
38400;BME280;24180;42.676;23.320;2022-08-20T00:23:18;94392.78;;;24.28;100.00
38400;BME280;24180;42.676;23.320;2022-08-20T00:25:44;94392.69;;;24.22;100.00
38400;BME280;24180;42.676;23.320;2022-08-20T00:28:13;94385.78;;;24.21;100.00
38400;BME280;24180;42.676;23.320;2022-08-20T00:30:41;94373.94;;;24.12;100.00
38400;BME280;24180;42.676;23.320;2022-08-20T00:33:11;94384.44;;;24.19;100.00
38400;BME280;24180;42.676;23.320;2022-08-20T00:35:40;94385.47;;;24.18;100.00
38400;BME280;24180;42.676;23.320;2022-08-20T00:38:06;94373.72;;;24.14;100.00
38400;BME280;24180;42.676;23.320;2022-08-20T00:40:36;94389.81;;;24.12;100.00
38400;BME280;24180;42.676;23.320;2022-08-20T00:43:05;94376.06;;;23.99;100.00
38400;BME280;24180;42.676;23.320;2022-08-20T00:45:32;94395.91;;;24.13;100.00
38400;BME280;24180;42.676;23.320;2022-08-20T00:47:58;94377.53;;;24.06;100.00
38400;BME280;24180;42.676;23.320;2022-08-20T00:50:33;94386.03;;;24.08;100.00
38400;BME280;24180;42.676;23.320;2022-08-20T00:53:02;94379.38;;;24.06;100.00
38400;BME280;24180;42.676;23.320;2022-08-20T00:55:30;94375.34;;;24.03;100.00
38400;BME280;24180;42.676;23.320;2022-08-20T00:57:59;94376.63;;;24.01;100.00
38400;BME280;24180;42.676;23.320;2022-08-20T01:00:32;94375.50;;;23.97;100.00
38400;BME280;24180;42.676;23.320;2022-08-20T01:03:00;94357.03;;;23.85;100.00
38400;BME280;24180;42.676;23.320;2022-08-20T01:05:27;94365.06;;;23.90;100.00
38400;BME280;24180;42.676;23.320;2022-08-20T01:07:53;94361.03;;;23.88;100.00
38400;BME280;24180;42.676;23.320;2022-08-20T01:10:23;94358.63;;;23.86;100.00
38400;BME280;24180;42.676;23.320;2022-08-20T01:12:51;94351.28;;;23.76;100.00
38400;BME280;24180;42.676;23.320;2022-08-20T01:15:19;94355.44;;;23.72;100.00
38400;BME280;24180;42.676;23.320;2022-08-20T01:17:50;94350.25;;;23.77;100.00
38400;BME280;24180;42.676;23.320;2022-08-20T01:20:31;94356.03;;;23.74;100.00
38400;BME280;24180;42.676;23.320;2022-08-20T01:23:15;94343.63;;;23.63;100.00
38400;BME280;24180;42.676;23.320;2022-08-20T01:26:16;94352.13;;;23.65;100.00
38400;BME280;24180;42.676;23.320;2022-08-20T01:31:12;94354.31;;;23.57;100.00
38400;BME280;24180;42.676;23.320;2022-08-20T01:33:38;94351.13;;;23.55;100.00
38400;BME280;24180;42.676;23.320;2022-08-20T01:36:05;94354.31;;;23.57;100.00
38400;BME280;24180;42.676;23.320;2022-08-20T01:38:31;94350.53;;;23.53;100.00
38400;BME280;24180;42.676;23.320;2022-08-20T01:43:40;94351.56;;;23.52;100.00
38400;BME280;24180;42.676;23.320;2022-08-20T01:46:10;94342.28;;;23.49;100.00
38400;BME280;24180;42.676;23.320;2022-08-20T01:48:39;94330.09;;;23.48;100.00
38400;BME280;24180;42.676;23.320;2022-08-20T01:51:14;94329.75;;;23.45;100.00
38400;BME280;24180;42.676;23.320;2022-08-20T01:53:45;94331.84;;;23.43;100.00
38400;BME280;24180;42.676;23.320;2022-08-20T01:56:13;94325.28;;;23.45;100.00
38400;BME280;24180;42.676;23.320;2022-08-20T01:58:43;94329.75;;;23.45;100.00
38400;BME280;24180;42.676;23.320;2022-08-20T02:01:37;94338.13;;;23.42;100.00
38400;BME280;24180;42.676;23.320;2022-08-20T02:04:06;94335.03;;;23.45;100.00
38400;BME280;24180;42.676;23.320;2022-08-20T02:06:35;94331.13;;;23.47;100.00
38400;BME280;24180;42.676;23.320;2022-08-20T02:09:03;94334.22;;;23.32;100.00
38400;BME280;24180;42.676;23.320;2022-08-20T02:11:30;94339.38;;;23.39;100.00
38400;BME280;24180;42.676;23.320;2022-08-20T02:13:57;94326.66;;;23.24;100.00
38400;BME280;24180;42.676;23.320;2022-08-20T02:16:25;94327.69;;;23.23;100.00
38400;BME280;24180;42.676;23.320;2022-08-20T02:18:57;94315.97;;;23.19;100.00
38400;BME280;24180;42.676;23.320;2022-08-20T02:21:26;94326.78;;;23.29;100.00
38400;BME280;24180;42.676;23.320;2022-08-20T02:23:53;94329.09;;;23.14;100.00
38400;BME280;24180;42.676;23.320;2022-08-20T02:26:19;94322.19;;;23.13;100.00
38400;BME280;24180;42.676;23.320;2022-08-20T02:28:47;94313.81;;;23.05;100.00
38400;BME280;24180;42.676;23.320;2022-08-20T02:31:14;94315.75;;;23.09;100.00
38400;BME280;24180;42.676;23.320;2022-08-20T02:33:40;94335.97;;;23.15;100.00
38400;BME280;24180;42.676;23.320;2022-08-20T02:36:05;94318.53;;;23.14;100.00
38400;BME280;24180;42.676;23.320;2022-08-20T02:38:31;94324.63;;;23.15;100.00
38400;BME280;24180;42.676;23.320;2022-08-20T02:41:00;94328.41;;;23.19;100.00
38400;BME280;24180;42.676;23.320;2022-08-20T02:43:26;94330.25;;;23.18;100.00
38400;BME280;24180;42.676;23.320;2022-08-20T02:45:51;94321.38;;;23.24;100.00
38400;BME280;24180;42.676;23.320;2022-08-20T02:48:19;94327.81;;;23.17;100.00
38400;BME280;24180;42.676;23.320;2022-08-20T02:50:47;94333.56;;;23.14;100.00
38400;BME280;24180;42.676;23.320;2022-08-20T02:53:14;94321.72;;;23.16;100.00
38400;BME280;24180;42.676;23.320;2022-08-20T02:55:40;94331.03;;;23.30;100.00
38400;BME280;24180;42.676;23.320;2022-08-20T02:58:07;94347.56;;;23.26;100.00
38400;BME280;24180;42.676;23.320;2022-08-20T03:00:33;94339.06;;;23.12;100.00
38400;BME280;24180;42.676;23.320;2022-08-20T03:02:59;94359.03;;;23.08;100.00
38400;BME280;24180;42.676;23.320;2022-08-20T03:05:25;94344.69;;;22.81;100.00
38400;BME280;24180;42.676;23.320;2022-08-20T03:07:52;94352.00;;;22.79;100.00
38400;BME280;24180;42.676;23.320;2022-08-20T03:10:28;94341.41;;;22.67;100.00
38400;BME280;24180;42.676;23.320;2022-08-20T03:16:00;94345.53;;;22.52;100.00
38400;BME280;24180;42.676;23.320;2022-08-20T03:18:36;94353.66;;;22.38;100.00
38400;BME280;24180;42.676;23.320;2022-08-20T03:21:08;94358.22;;;22.43;100.00
38400;BME280;24180;42.676;23.320;2022-08-20T03:23:38;94352.81;;;22.26;100.00
38400;BME280;24180;42.676;23.320;2022-08-20T03:26:25;94365.41;;;22.24;100.00
38400;BME280;24180;42.676;23.320;2022-08-20T03:29:17;94347.41;;;22.21;100.00
38400;BME280;24180;42.676;23.320;2022-08-20T03:31:44;94362.22;;;22.22;100.00
38400;BME280;24180;42.676;23.320;2022-08-20T03:34:10;94354.88;;;22.24;100.00
38400;BME280;24180;42.676;23.320;2022-08-20T03:36:55;94366.31;;;22.18;100.00
38400;BME280;24180;42.676;23.320;2022-08-20T03:39:21;94358.03;;;22.15;100.00
38400;BME280;24180;42.676;23.320;2022-08-20T03:45:18;94370.81;;;22.00;100.00
38400;BME280;24180;42.676;23.320;2022-08-20T03:47:50;94369.34;;;22.04;100.00
38400;BME280;24180;42.676;23.320;2022-08-20T03:50:19;94364.72;;;21.99;100.00
38400;BME280;24180;42.676;23.320;2022-08-20T03:52:45;94363.50;;;22.02;100.00
38400;BME280;24180;42.676;23.320;2022-08-20T03:55:14;94364.78;;;22.11;100.00
38400;BME280;24180;42.676;23.320;2022-08-20T03:57:48;94357.06;;;21.98;100.00
38400;BME280;24180;42.676;23.320;2022-08-20T04:00:23;94379.44;;;22.07;100.00
38400;BME280;24180;42.676;23.320;2022-08-20T04:03:07;94382.06;;;22.07;100.00
38400;BME280;24180;42.676;23.320;2022-08-20T04:05:36;94379.06;;;22.03;100.00
38400;BME280;24180;42.676;23.320;2022-08-20T04:08:17;94383.72;;;22.19;100.00
38400;BME280;24180;42.676;23.320;2022-08-20T04:10:45;94379.50;;;22.18;100.00
38400;BME280;24180;42.676;23.320;2022-08-20T04:13:12;94367.56;;;22.16;100.00
38400;BME280;24180;42.676;23.320;2022-08-20T04:15:44;94361.22;;;22.05;100.00
38400;BME280;24180;42.676;23.320;2022-08-20T04:18:14;94387.09;;;22.26;100.00
38400;BME280;24180;42.676;23.320;2022-08-20T04:20:45;94377.41;;;22.38;100.00
38400;BME280;24180;42.676;23.320;2022-08-20T04:23:17;94390.34;;;22.40;100.00
38400;BME280;24180;42.676;23.320;2022-08-20T04:25:44;94377.28;;;22.45;100.00
38400;BME280;24180;42.676;23.320;2022-08-20T04:28:26;94375.78;;;22.37;100.00
38400;BME280;24180;42.676;23.320;2022-08-20T04:31:04;94383.25;;;22.40;100.00
38400;BME280;24180;42.676;23.320;2022-08-20T04:36:46;94385.78;;;22.47;100.00
38400;BME280;24180;42.676;23.320;2022-08-20T04:39:17;94381.66;;;22.51;100.00
38400;BME280;24180;42.676;23.320;2022-08-20T04:41:44;94376.13;;;22.41;100.00
38400;BME280;24180;42.676;23.320;2022-08-20T04:44:19;94376.75;;;22.55;100.00
38400;BME280;24180;42.676;23.320;2022-08-20T04:50:14;94384.44;;;22.68;100.00
38400;BME280;24180;42.676;23.320;2022-08-20T04:53:00;94390.03;;;22.78;100.00
38400;BME280;24180;42.676;23.320;2022-08-20T04:55:45;94394.16;;;22.74;100.00
38400;BME280;24180;42.676;23.320;2022-08-20T04:58:16;94388.81;;;22.62;100.00
38400;BME280;24180;42.676;23.320;2022-08-20T05:00:47;94377.56;;;22.67;100.00
38400;BME280;24180;42.676;23.320;2022-08-20T05:03:19;94374.66;;;22.87;100.00
38400;BME280;24180;42.676;23.320;2022-08-20T05:05:54;94363.06;;;22.88;100.00
38400;BME280;24180;42.676;23.320;2022-08-20T05:08:27;94384.56;;;23.14;100.00
38400;BME280;24180;42.676;23.320;2022-08-20T05:10:54;94392.81;;;23.29;100.00
38400;BME280;24180;42.676;23.320;2022-08-20T05:13:20;94396.34;;;23.35;100.00
38400;BME280;24180;42.676;23.320;2022-08-20T05:15:46;94382.06;;;23.43;100.00
38400;BME280;24180;42.676;23.320;2022-08-20T05:18:17;94377.31;;;23.45;100.00
38400;BME280;24180;42.676;23.320;2022-08-20T05:20:44;94387.06;;;23.56;100.00
38400;BME280;24180;42.676;23.320;2022-08-20T05:23:32;94385.31;;;23.73;100.00
38400;BME280;24180;42.676;23.320;2022-08-20T05:26:09;94380.16;;;23.78;100.00
38400;BME280;24180;42.676;23.320;2022-08-20T05:28:37;94381.31;;;23.70;100.00
38400;BME280;24180;42.676;23.320;2022-08-20T05:31:34;94376.34;;;23.86;100.00
38400;BME280;24180;42.676;23.320;2022-08-20T05:34:04;94360.75;;;24.01;100.00
38400;BME280;24180;42.676;23.320;2022-08-20T05:36:42;94365.66;;;24.20;100.00
38400;BME280;24180;42.676;23.320;2022-08-20T05:39:14;94371.59;;;24.28;100.00
38400;BME280;24180;42.676;23.320;2022-08-20T05:41:41;94365.94;;;24.36;100.00
38400;BME280;24180;42.676;23.320;2022-08-20T05:44:10;94363.66;;;24.56;100.00
38400;BME280;24180;42.676;23.320;2022-08-20T05:46:45;94363.34;;;24.69;100.00
38400;BME280;24180;42.676;23.320;2022-08-20T05:49:13;94357.56;;;24.72;100.00
38400;BME280;24180;42.676;23.320;2022-08-20T05:52:11;94370.88;;;24.77;100.00
38400;BME280;24180;42.676;23.320;2022-08-20T05:54:37;94371.47;;;24.79;100.00
38400;BME280;24180;42.676;23.320;2022-08-20T05:57:24;94374.47;;;24.99;100.00
38400;BME280;24180;42.676;23.320;2022-08-20T05:59:52;94368.28;;;25.10;100.00
38400;BME280;24180;42.676;23.320;2022-08-20T06:02:42;94356.47;;;25.18;100.00
38400;BME280;24180;42.676;23.320;2022-08-20T06:05:31;94347.84;;;25.28;100.00
38400;BME280;24180;42.676;23.320;2022-08-20T06:08:09;94353.72;;;25.30;100.00
38400;BME280;24180;42.676;23.320;2022-08-20T06:10:36;94355.72;;;25.39;100.00
38400;BME280;24180;42.676;23.320;2022-08-20T06:13:02;94364.28;;;25.46;100.00
38400;BME280;24180;42.676;23.320;2022-08-20T06:15:46;94365.81;;;25.59;100.00
38400;BME280;24180;42.676;23.320;2022-08-20T06:18:16;94354.91;;;25.55;100.00
38400;BME280;24180;42.676;23.320;2022-08-20T06:20:48;94362.28;;;25.53;100.00
38400;BME280;24180;42.676;23.320;2022-08-20T06:23:16;94367.16;;;25.61;100.00
38400;BME280;24180;42.676;23.320;2022-08-20T06:26:00;94376.81;;;25.68;100.00
38400;BME280;24180;42.676;23.320;2022-08-20T06:28:26;94371.38;;;25.79;100.00
38400;BME280;24180;42.676;23.320;2022-08-20T06:30:51;94368.03;;;25.89;100.00
38400;BME280;24180;42.676;23.320;2022-08-20T06:33:17;94367.22;;;26.10;100.00
38400;BME280;24180;42.676;23.320;2022-08-20T06:35:44;94349.59;;;26.21;100.00
38400;BME280;24180;42.676;23.320;2022-08-20T06:38:11;94363.34;;;26.39;100.00
38400;BME280;24180;42.676;23.320;2022-08-20T06:40:37;94359.72;;;26.50;100.00
38400;BME280;24180;42.676;23.320;2022-08-20T06:43:03;94362.44;;;26.56;100.00
38400;BME280;24180;42.676;23.320;2022-08-20T06:45:31;94361.19;;;26.68;100.00
38400;BME280;24180;42.676;23.320;2022-08-20T06:47:59;94365.31;;;26.81;100.00
38400;BME280;24180;42.676;23.320;2022-08-20T06:50:34;94364.84;;;26.84;100.00
38400;BME280;24180;42.676;23.320;2022-08-20T06:53:05;94352.38;;;26.89;100.00
38400;BME280;24180;42.676;23.320;2022-08-20T06:55:32;94364.22;;;27.09;100.00
38400;BME280;24180;42.676;23.320;2022-08-20T06:58:06;94353.59;;;27.09;100.00
38400;BME280;24180;42.676;23.320;2022-08-20T07:00:33;94350.75;;;27.20;100.00
38400;BME280;24180;42.676;23.320;2022-08-20T07:03:00;94347.59;;;27.28;100.00
38400;BME280;24180;42.676;23.320;2022-08-20T07:05:33;94349.59;;;27.43;100.00
38400;BME280;24180;42.676;23.320;2022-08-20T07:08:00;94341.06;;;27.46;100.00
38400;BME280;24180;42.676;23.320;2022-08-20T07:10:27;94343.63;;;27.68;100.00
38400;BME280;24180;42.676;23.320;2022-08-20T07:12:53;94330.09;;;27.84;100.00
38400;BME280;24180;42.676;23.320;2022-08-20T07:15:21;94325.91;;;27.99;100.00
38400;BME280;24180;42.676;23.320;2022-08-20T07:17:59;94327.06;;;28.18;100.00
38400;BME280;24180;42.676;23.320;2022-08-20T07:20:26;94330.03;;;28.31;100.00
38400;BME280;24180;42.676;23.320;2022-08-20T07:22:53;94326.84;;;28.34;98.05
38400;BME280;24180;42.676;23.320;2022-08-20T07:25:20;94334.31;;;28.43;99.13
38400;BME280;24180;42.676;23.320;2022-08-20T07:27:47;94331.94;;;28.61;97.63
38400;BME280;24180;42.676;23.320;2022-08-20T07:30:20;94321.84;;;28.73;96.07
38400;BME280;24180;42.676;23.320;2022-08-20T07:33:05;94325.31;;;28.74;93.34
38400;BME280;24180;42.676;23.320;2022-08-20T07:35:31;94327.16;;;28.73;92.77
38400;BME280;24180;42.676;23.320;2022-08-20T07:37:57;94316.50;;;28.73;94.73
38400;BME280;24180;42.676;23.320;2022-08-20T07:40:27;94325.03;;;29.06;93.69
38400;BME280;24180;42.676;23.320;2022-08-20T07:42:56;94326.63;;;29.12;92.54
38400;BME280;24180;42.676;23.320;2022-08-20T07:45:24;94327.16;;;29.29;92.93
38400;BME280;24180;42.676;23.320;2022-08-20T07:47:50;94333.28;;;29.40;92.13
38400;BME280;24180;42.676;23.320;2022-08-20T07:50:24;94328.47;;;29.47;91.92
38400;BME280;24180;42.676;23.320;2022-08-20T07:52:51;94309.47;;;29.58;89.13
38400;BME280;24180;42.676;23.320;2022-08-20T07:55:23;94319.84;;;29.70;88.83
38400;BME280;24180;42.676;23.320;2022-08-20T07:57:50;94319.84;;;29.75;91.57
38400;BME280;24180;42.676;23.320;2022-08-20T08:03:37;94311.78;;;29.85;93.37
38400;BME280;24180;42.676;23.320;2022-08-20T08:06:03;94308.34;;;29.85;89.40
38400;BME280;24180;42.676;23.320;2022-08-20T08:08:31;94318.44;;;29.98;87.21
38400;BME280;24180;42.676;23.320;2022-08-20T08:10:59;94315.09;;;30.26;84.74
38400;BME280;24180;42.676;23.320;2022-08-20T08:13:28;94317.75;;;30.26;83.14
38400;BME280;24180;42.676;23.320;2022-08-20T08:15:57;94321.44;;;30.35;84.93
38400;BME280;24180;42.676;23.320;2022-08-20T08:18:38;94308.69;;;30.22;83.79
38400;BME280;24180;42.676;23.320;2022-08-20T08:21:07;94317.41;;;30.48;82.18
38400;BME280;24180;42.676;23.320;2022-08-20T08:23:33;94313.34;;;30.55;79.44
38400;BME280;24180;42.676;23.320;2022-08-20T08:26:00;94310.56;;;30.65;79.78
38400;BME280;24180;42.676;23.320;2022-08-20T08:28:28;94306.00;;;30.71;80.30
38400;BME280;24180;42.676;23.320;2022-08-20T08:30:55;94309.38;;;30.82;80.47
38400;BME280;24180;42.676;23.320;2022-08-20T08:33:24;94300.81;;;30.85;80.24
38400;BME280;24180;42.676;23.320;2022-08-20T08:36:12;94302.59;;;30.94;78.78
38400;BME280;24180;42.676;23.320;2022-08-20T08:38:40;94307.91;;;31.04;74.15
38400;BME280;24180;42.676;23.320;2022-08-20T08:41:17;94302.34;;;30.91;73.64
38400;BME280;24180;42.676;23.320;2022-08-20T08:43:50;94301.13;;;31.12;78.85
38400;BME280;24180;42.676;23.320;2022-08-20T08:46:20;94289.28;;;31.18;75.86
38400;BME280;24180;42.676;23.320;2022-08-20T08:48:49;94293.81;;;31.46;77.02
38400;BME280;24180;42.676;23.320;2022-08-20T08:51:27;94284.88;;;31.32;77.83
38400;BME280;24180;42.676;23.320;2022-08-20T08:53:59;94286.56;;;31.23;75.75
38400;BME280;24180;42.676;23.320;2022-08-20T08:56:28;94281.59;;;31.40;75.03
38400;BME280;24180;42.676;23.320;2022-08-20T08:59:00;94279.75;;;31.65;75.17
38400;BME280;24180;42.676;23.320;2022-08-20T09:01:27;94267.78;;;31.81;73.68
38400;BME280;24180;42.676;23.320;2022-08-20T09:03:54;94273.66;;;31.78;68.74
38400;BME280;24180;42.676;23.320;2022-08-20T09:06:22;94259.81;;;31.94;68.86
38400;BME280;24180;42.676;23.320;2022-08-20T09:08:52;94263.81;;;31.97;67.63
38400;BME280;24180;42.676;23.320;2022-08-20T09:11:22;94257.34;;;31.98;67.11
38400;BME280;24180;42.676;23.320;2022-08-20T09:13:48;94262.75;;;32.17;66.60
38400;BME280;24180;42.676;23.320;2022-08-20T09:16:14;94260.78;;;32.22;63.31
38400;BME280;24180;42.676;23.320;2022-08-20T09:18:41;94267.59;;;32.52;62.14
38400;BME280;24180;42.676;23.320;2022-08-20T09:21:07;94272.44;;;32.50;59.96
38400;BME280;24180;42.676;23.320;2022-08-20T09:23:37;94271.88;;;32.34;61.39
38400;BME280;24180;42.676;23.320;2022-08-20T09:26:02;94268.56;;;32.24;62.24
38400;BME280;24180;42.676;23.320;2022-08-20T09:28:28;94270.28;;;32.52;62.34
38400;BME280;24180;42.676;23.320;2022-08-20T09:30:53;94263.66;;;32.82;59.47
38400;BME280;24180;42.676;23.320;2022-08-20T09:33:19;94254.75;;;33.00;56.73
38400;BME280;24180;42.676;23.320;2022-08-20T09:35:44;94263.31;;;33.02;54.50
38400;BME280;24180;42.676;23.320;2022-08-20T09:38:11;94250.56;;;33.13;53.75
38400;BME280;24180;42.676;23.320;2022-08-20T09:40:37;94255.84;;;33.45;52.50
38400;BME280;24180;42.676;23.320;2022-08-20T09:43:07;94247.50;;;33.33;51.81
38400;BME280;24180;42.676;23.320;2022-08-20T09:45:34;94263.88;;;33.59;54.62
38400;BME280;24180;42.676;23.320;2022-08-20T09:48:00;94248.53;;;33.78;50.73
38400;BME280;24180;42.676;23.320;2022-08-20T09:50:28;94259.81;;;34.02;53.73
38400;BME280;24180;42.676;23.320;2022-08-20T09:52:54;94248.66;;;34.09;51.90
38400;BME280;24180;42.676;23.320;2022-08-20T09:55:39;94251.38;;;34.45;49.05
38400;BME280;24180;42.676;23.320;2022-08-20T09:58:16;94241.31;;;34.72;47.17
38400;BME280;24180;42.676;23.320;2022-08-20T10:00:43;94249.25;;;35.22;46.15
38400;BME280;24180;42.676;23.320;2022-08-20T10:03:09;94249.63;;;35.77;44.83
38400;BME280;24180;42.676;23.320;2022-08-20T10:05:34;94251.66;;;36.45;43.37
38400;BME280;24180;42.676;23.320;2022-08-20T10:08:04;94252.44;;;37.61;41.34
38400;BME280;24180;42.676;23.320;2022-08-20T10:10:29;94240.63;;;38.24;36.48
38400;BME280;24180;42.676;23.320;2022-08-20T10:12:56;94238.34;;;39.42;34.49
38400;BME280;24180;42.676;23.320;2022-08-20T10:15:21;94241.53;;;41.25;33.22
38400;BME280;24180;42.676;23.320;2022-08-20T10:17:47;94229.38;;;42.32;31.17
38400;BME280;24180;42.676;23.320;2022-08-20T10:20:13;94236.94;;;43.15;29.91
38400;BME280;24180;42.676;23.320;2022-08-20T10:22:40;94238.25;;;43.67;27.51
38400;BME280;24180;42.676;23.320;2022-08-20T10:25:06;94235.50;;;44.42;26.36
38400;BME280;24180;42.676;23.320;2022-08-20T10:27:32;94227.00;;;42.30;27.59
38400;BME280;24180;42.676;23.320;2022-08-20T10:29:59;94224.19;;;43.88;27.43
38400;BME280;24180;42.676;23.320;2022-08-20T10:32:24;94229.41;;;45.52;26.05
38400;BME280;24180;42.676;23.320;2022-08-20T10:34:50;94224.50;;;45.72;24.76
38400;BME280;24180;42.676;23.320;2022-08-20T10:37:19;94218.78;;;46.46;24.49
38400;BME280;24180;42.676;23.320;2022-08-20T10:39:45;94216.00;;;47.43;23.79
38400;BME280;24180;42.676;23.320;2022-08-20T10:42:12;94220.72;;;46.42;24.65
38400;BME280;24180;42.676;23.320;2022-08-20T10:44:38;94221.25;;;46.65;23.81
38400;BME280;24180;42.676;23.320;2022-08-20T10:47:25;94222.72;;;48.06;23.35
38400;BME280;24180;42.676;23.320;2022-08-20T10:49:53;94219.97;;;48.02;23.08
38400;BME280;24180;42.676;23.320;2022-08-20T10:52:20;94221.53;;;47.85;22.79
38400;BME280;24180;42.676;23.320;2022-08-20T10:54:47;94208.81;;;46.89;23.52
38400;BME280;24180;42.676;23.320;2022-08-20T10:57:16;94211.59;;;45.29;24.70
38400;BME280;24180;42.676;23.320;2022-08-20T10:59:45;94215.28;;;44.17;25.68
38400;BME280;24180;42.676;23.320;2022-08-20T11:02:12;94205.47;;;42.99;26.62
38400;BME280;24180;42.676;23.320;2022-08-20T11:04:39;94208.38;;;43.28;26.85
38400;BME280;24180;42.676;23.320;2022-08-20T11:07:11;94218.97;;;43.33;26.13
38400;BME280;24180;42.676;23.320;2022-08-20T11:09:36;94204.69;;;42.60;27.48
38400;BME280;24180;42.676;23.320;2022-08-20T11:12:02;94193.31;;;41.69;28.42
38400;BME280;24180;42.676;23.320;2022-08-20T11:14:34;94197.38;;;41.43;28.40
38400;BME280;24180;42.676;23.320;2022-08-20T11:17:01;94197.81;;;42.46;27.97
38400;BME280;24180;42.676;23.320;2022-08-20T11:19:27;94201.44;;;43.12;27.39
38400;BME280;24180;42.676;23.320;2022-08-20T11:21:52;94200.66;;;42.34;27.73
38400;BME280;24180;42.676;23.320;2022-08-20T11:24:18;94188.66;;;42.20;28.07
38400;BME280;24180;42.676;23.320;2022-08-20T11:26:46;94187.69;;;42.85;26.74
38400;BME280;24180;42.676;23.320;2022-08-20T11:29:13;94176.94;;;41.49;28.82
38400;BME280;24180;42.676;23.320;2022-08-20T11:31:44;94159.41;;;40.44;30.14
38400;BME280;24180;42.676;23.320;2022-08-20T11:34:12;94166.50;;;39.48;30.97
38400;BME280;24180;42.676;23.320;2022-08-20T11:36:39;94165.44;;;39.04;31.77
38400;BME280;24180;42.676;23.320;2022-08-20T11:39:11;94162.94;;;38.87;32.38
38400;BME280;24180;42.676;23.320;2022-08-20T11:41:39;94147.50;;;38.55;33.08
38400;BME280;24180;42.676;23.320;2022-08-20T11:44:05;94156.97;;;38.40;33.63
38400;BME280;24180;42.676;23.320;2022-08-20T11:46:31;94150.44;;;37.58;34.68
38400;BME280;24180;42.676;23.320;2022-08-20T11:49:01;94144.09;;;37.45;34.03
38400;BME280;24180;42.676;23.320;2022-08-20T11:51:27;94152.47;;;37.61;34.78
38400;BME280;24180;42.676;23.320;2022-08-20T11:53:58;94155.56;;;37.51;35.21
38400;BME280;24180;42.676;23.320;2022-08-20T11:56:23;94154.75;;;37.51;34.73
38400;BME280;24180;42.676;23.320;2022-08-20T11:58:49;94139.94;;;37.48;35.11
38400;BME280;24180;42.676;23.320;2022-08-20T12:01:16;94159.59;;;37.28;35.77
38400;BME280;24180;42.676;23.320;2022-08-20T12:03:54;94153.09;;;36.82;35.61
38400;BME280;24180;42.676;23.320;2022-08-20T12:06:21;94141.09;;;36.63;35.94
38400;BME280;24180;42.676;23.320;2022-08-20T12:08:46;94140.78;;;36.30;37.28
38400;BME280;24180;42.676;23.320;2022-08-20T12:11:12;94147.91;;;36.08;36.92
38400;BME280;24180;42.676;23.320;2022-08-20T12:13:38;94123.41;;;35.45;38.62
38400;BME280;24180;42.676;23.320;2022-08-20T12:16:05;94150.41;;;35.14;39.37
38400;BME280;24180;42.676;23.320;2022-08-20T12:18:30;94150.31;;;34.66;39.48
38400;BME280;24180;42.676;23.320;2022-08-20T12:20:56;94166.44;;;34.44;39.71
38400;BME280;24180;42.676;23.320;2022-08-20T12:23:27;94172.50;;;34.13;40.65
38400;BME280;24180;42.676;23.320;2022-08-20T12:25:54;94168.06;;;33.95;41.84
38400;BME280;24180;42.676;23.320;2022-08-20T12:28:20;94164.13;;;33.79;41.94
38400;BME280;24180;42.676;23.320;2022-08-20T12:30:47;94162.56;;;33.78;42.57
38400;BME280;24180;42.676;23.320;2022-08-20T12:33:13;94162.69;;;33.73;54.29
38400;BME280;24180;42.676;23.320;2022-08-20T12:35:39;94178.31;;;33.30;65.79
38400;BME280;24180;42.676;23.320;2022-08-20T12:38:05;94181.41;;;32.77;80.37
38400;BME280;24180;42.676;23.320;2022-08-20T12:40:32;94190.72;;;32.15;95.67
38400;BME280;24180;42.676;23.320;2022-08-20T12:46:12;94192.03;;;28.94;100.00
38400;BME280;24180;42.676;23.320;2022-08-20T12:48:37;94220.06;;;26.86;100.00
38400;BME280;24180;42.676;23.320;2022-08-20T12:51:03;94205.19;;;24.81;100.00
38400;BME280;24180;42.676;23.320;2022-08-20T12:53:28;94178.19;;;24.12;100.00
38400;BME280;24180;42.676;23.320;2022-08-20T12:55:54;94139.16;;;24.19;100.00
38400;BME280;24180;42.676;23.320;2022-08-20T12:58:19;94104.78;;;24.19;100.00
38400;BME280;24180;42.676;23.320;2022-08-20T13:00:45;94106.41;;;23.70;100.00
38400;BME280;24180;42.676;23.320;2022-08-20T13:03:12;94102.44;;;23.56;100.00
38400;BME280;24180;42.676;23.320;2022-08-20T13:06:00;94088.44;;;23.27;100.00
38400;BME280;24180;42.676;23.320;2022-08-20T13:08:25;94087.91;;;23.42;100.00
38400;BME280;24180;42.676;23.320;2022-08-20T13:10:51;94078.25;;;24.53;100.00
38400;BME280;24180;42.676;23.320;2022-08-20T13:13:17;94057.94;;;26.71;100.00
38400;BME280;24180;42.676;23.320;2022-08-20T13:15:43;94029.28;;;32.10;100.00
38400;BME280;24180;42.676;23.320;2022-08-20T13:18:08;94088.19;;;35.15;100.00
38400;BME280;24180;42.676;23.320;2022-08-20T13:20:35;94119.53;;;36.02;100.00